sensor_id;sensor_type;location;lat;lon;timestamp;temperature;humidity
19342;DHT22;9807;48.258;12.690;2023-07-24T00:01:59;23.80;99.90
19342;DHT22;9807;48.258;12.690;2023-07-24T00:04:25;23.80;99.90
19342;DHT22;9807;48.258;12.690;2023-07-24T00:06:51;23.80;99.90
19342;DHT22;9807;48.258;12.690;2023-07-24T00:09:16;23.70;99.90
19342;DHT22;9807;48.258;12.690;2023-07-24T00:11:42;23.70;99.90
19342;DHT22;9807;48.258;12.690;2023-07-24T00:14:07;23.70;99.90
19342;DHT22;9807;48.258;12.690;2023-07-24T00:16:33;23.70;99.90
19342;DHT22;9807;48.258;12.690;2023-07-24T00:18:59;23.70;99.90
19342;DHT22;9807;48.258;12.690;2023-07-24T00:21:24;23.60;99.90
19342;DHT22;9807;48.258;12.690;2023-07-24T00:23:50;23.60;99.90
19342;DHT22;9807;48.258;12.690;2023-07-24T00:26:16;23.60;99.90
19342;DHT22;9807;48.258;12.690;2023-07-24T00:28:41;23.50;99.90
19342;DHT22;9807;48.258;12.690;2023-07-24T00:31:07;23.50;99.90
19342;DHT22;9807;48.258;12.690;2023-07-24T00:33:33;23.50;99.90
19342;DHT22;9807;48.258;12.690;2023-07-24T00:35:58;23.40;99.90
19342;DHT22;9807;48.258;12.690;2023-07-24T00:38:24;23.40;99.90
19342;DHT22;9807;48.258;12.690;2023-07-24T00:40:50;23.40;99.90
19342;DHT22;9807;48.258;12.690;2023-07-24T00:43:16;23.40;99.90
19342;DHT22;9807;48.258;12.690;2023-07-24T00:45:43;23.30;99.90
19342;DHT22;9807;48.258;12.690;2023-07-24T00:48:09;23.30;99.90
19342;DHT22;9807;48.258;12.690;2023-07-24T00:50:36;23.30;99.90
19342;DHT22;9807;48.258;12.690;2023-07-24T00:53:03;23.30;99.90
19342;DHT22;9807;48.258;12.690;2023-07-24T00:55:29;23.20;99.90
19342;DHT22;9807;48.258;12.690;2023-07-24T00:57:57;23.20;99.90
19342;DHT22;9807;48.258;12.690;2023-07-24T01:00:23;23.20;99.90
19342;DHT22;9807;48.258;12.690;2023-07-24T01:02:49;23.20;99.90
19342;DHT22;9807;48.258;12.690;2023-07-24T01:05:16;23.20;99.90
19342;DHT22;9807;48.258;12.690;2023-07-24T01:07:42;23.10;99.90
19342;DHT22;9807;48.258;12.690;2023-07-24T01:10:08;23.00;99.90
19342;DHT22;9807;48.258;12.690;2023-07-24T01:12:39;23.00;99.90
19342;DHT22;9807;48.258;12.690;2023-07-24T01:15:24;23.00;99.90
19342;DHT22;9807;48.258;12.690;2023-07-24T01:17:59;23.00;99.90
19342;DHT22;9807;48.258;12.690;2023-07-24T01:20:26;23.10;99.90
19342;DHT22;9807;48.258;12.690;2023-07-24T01:28:17;23.00;99.90
19342;DHT22;9807;48.258;12.690;2023-07-24T01:30:43;22.90;99.90
19342;DHT22;9807;48.258;12.690;2023-07-24T01:33:09;23.00;99.90
19342;DHT22;9807;48.258;12.690;2023-07-24T01:35:35;22.90;99.90
19342;DHT22;9807;48.258;12.690;2023-07-24T01:38:02;22.90;99.90
19342;DHT22;9807;48.258;12.690;2023-07-24T01:40:29;22.90;99.90
19342;DHT22;9807;48.258;12.690;2023-07-24T01:42:56;22.90;99.90
19342;DHT22;9807;48.258;12.690;2023-07-24T01:45:21;22.90;99.90
19342;DHT22;9807;48.258;12.690;2023-07-24T01:47:47;22.90;99.90
19342;DHT22;9807;48.258;12.690;2023-07-24T01:50:13;22.90;99.90
19342;DHT22;9807;48.258;12.690;2023-07-24T01:52:38;22.90;99.90
19342;DHT22;9807;48.258;12.690;2023-07-24T01:55:04;22.80;99.90
19342;DHT22;9807;48.258;12.690;2023-07-24T01:57:30;22.90;99.90
19342;DHT22;9807;48.258;12.690;2023-07-24T01:59:55;22.90;99.90
19342;DHT22;9807;48.258;12.690;2023-07-24T02:02:21;22.90;99.90
19342;DHT22;9807;48.258;12.690;2023-07-24T02:04:47;22.80;99.90
19342;DHT22;9807;48.258;12.690;2023-07-24T02:07:12;22.80;99.90
19342;DHT22;9807;48.258;12.690;2023-07-24T02:09:38;22.80;99.90
19342;DHT22;9807;48.258;12.690;2023-07-24T02:12:04;22.80;99.90
19342;DHT22;9807;48.258;12.690;2023-07-24T02:14:30;22.80;99.90
19342;DHT22;9807;48.258;12.690;2023-07-24T02:16:56;22.80;99.90
19342;DHT22;9807;48.258;12.690;2023-07-24T02:19:21;22.70;99.90
19342;DHT22;9807;48.258;12.690;2023-07-24T02:21:47;22.80;99.90
19342;DHT22;9807;48.258;12.690;2023-07-24T02:24:12;22.70;99.90
19342;DHT22;9807;48.258;12.690;2023-07-24T02:26:38;22.70;99.90
19342;DHT22;9807;48.258;12.690;2023-07-24T02:29:03;22.70;99.90
19342;DHT22;9807;48.258;12.690;2023-07-24T02:31:29;22.70;99.90
19342;DHT22;9807;48.258;12.690;2023-07-24T02:33:55;22.70;99.90
19342;DHT22;9807;48.258;12.690;2023-07-24T02:36:20;22.60;99.90
19342;DHT22;9807;48.258;12.690;2023-07-24T02:38:46;22.70;99.90
19342;DHT22;9807;48.258;12.690;2023-07-24T02:41:12;22.60;99.90
19342;DHT22;9807;48.258;12.690;2023-07-24T02:43:37;22.60;99.90
19342;DHT22;9807;48.258;12.690;2023-07-24T02:46:03;22.50;99.90
19342;DHT22;9807;48.258;12.690;2023-07-24T02:48:29;22.50;99.90
19342;DHT22;9807;48.258;12.690;2023-07-24T02:50:55;22.50;99.90
19342;DHT22;9807;48.258;12.690;2023-07-24T02:53:20;22.50;99.90
19342;DHT22;9807;48.258;12.690;2023-07-24T02:55:46;22.50;99.90
19342;DHT22;9807;48.258;12.690;2023-07-24T02:58:15;22.50;99.90
19342;DHT22;9807;48.258;12.690;2023-07-24T03:00:42;22.50;99.90
19342;DHT22;9807;48.258;12.690;2023-07-24T03:03:07;22.50;99.90
19342;DHT22;9807;48.258;12.690;2023-07-24T03:05:36;22.50;99.90
19342;DHT22;9807;48.258;12.690;2023-07-24T03:08:02;22.50;99.90
19342;DHT22;9807;48.258;12.690;2023-07-24T03:10:27;22.50;99.90
19342;DHT22;9807;48.258;12.690;2023-07-24T03:12:53;22.30;99.90
19342;DHT22;9807;48.258;12.690;2023-07-24T03:15:19;21.50;99.90
19342;DHT22;9807;48.258;12.690;2023-07-24T03:17:45;21.10;99.90
19342;DHT22;9807;48.258;12.690;2023-07-24T03:20:18;21.10;99.90
19342;DHT22;9807;48.258;12.690;2023-07-24T03:22:44;21.40;99.90
19342;DHT22;9807;48.258;12.690;2023-07-24T03:25:10;21.60;99.90
19342;DHT22;9807;48.258;12.690;2023-07-24T03:27:36;21.80;99.90
19342;DHT22;9807;48.258;12.690;2023-07-24T03:30:02;21.90;99.90
19342;DHT22;9807;48.258;12.690;2023-07-24T03:32:28;22.00;99.90
19342;DHT22;9807;48.258;12.690;2023-07-24T03:34:54;22.10;99.90
19342;DHT22;9807;48.258;12.690;2023-07-24T03:37:20;22.10;99.90
19342;DHT22;9807;48.258;12.690;2023-07-24T03:39:46;22.10;99.90
19342;DHT22;9807;48.258;12.690;2023-07-24T03:42:11;21.60;99.90
19342;DHT22;9807;48.258;12.690;2023-07-24T03:44:40;21.20;99.90
19342;DHT22;9807;48.258;12.690;2023-07-24T03:47:09;21.30;99.90
19342;DHT22;9807;48.258;12.690;2023-07-24T03:49:34;21.40;99.90
19342;DHT22;9807;48.258;12.690;2023-07-24T03:52:00;21.70;99.90
19342;DHT22;9807;48.258;12.690;2023-07-24T03:54:25;21.80;99.90
19342;DHT22;9807;48.258;12.690;2023-07-24T03:56:51;21.90;99.90
19342;DHT22;9807;48.258;12.690;2023-07-24T03:59:17;22.00;99.90
19342;DHT22;9807;48.258;12.690;2023-07-24T04:01:42;22.00;99.90
19342;DHT22;9807;48.258;12.690;2023-07-24T04:04:08;21.60;99.90
19342;DHT22;9807;48.258;12.690;2023-07-24T04:06:34;21.20;99.90
19342;DHT22;9807;48.258;12.690;2023-07-24T04:08:59;21.20;99.90
19342;DHT22;9807;48.258;12.690;2023-07-24T04:11:25;21.20;99.90
19342;DHT22;9807;48.258;12.690;2023-07-24T04:13:51;20.30;99.90
19342;DHT22;9807;48.258;12.690;2023-07-24T04:16:17;18.80;99.90
19342;DHT22;9807;48.258;12.690;2023-07-24T04:18:42;18.40;99.90
19342;DHT22;9807;48.258;12.690;2023-07-24T04:21:08;18.40;99.90
19342;DHT22;9807;48.258;12.690;2023-07-24T04:23:33;18.50;99.90
19342;DHT22;9807;48.258;12.690;2023-07-24T04:25:59;18.40;99.90
19342;DHT22;9807;48.258;12.690;2023-07-24T04:28:24;18.50;99.90
19342;DHT22;9807;48.258;12.690;2023-07-24T04:30:50;18.60;99.90
19342;DHT22;9807;48.258;12.690;2023-07-24T04:33:16;18.70;99.90
19342;DHT22;9807;48.258;12.690;2023-07-24T04:35:42;18.90;99.90
19342;DHT22;9807;48.258;12.690;2023-07-24T04:38:08;19.10;99.90
19342;DHT22;9807;48.258;12.690;2023-07-24T04:40:33;19.20;99.90
19342;DHT22;9807;48.258;12.690;2023-07-24T04:42:59;19.20;99.90
19342;DHT22;9807;48.258;12.690;2023-07-24T04:45:25;19.30;99.90
19342;DHT22;9807;48.258;12.690;2023-07-24T04:47:50;19.40;99.90
19342;DHT22;9807;48.258;12.690;2023-07-24T04:50:16;19.50;99.90
19342;DHT22;9807;48.258;12.690;2023-07-24T04:52:41;19.80;99.90
19342;DHT22;9807;48.258;12.690;2023-07-24T04:55:07;20.30;99.90
19342;DHT22;9807;48.258;12.690;2023-07-24T04:57:33;20.70;99.90
19342;DHT22;9807;48.258;12.690;2023-07-24T04:59:58;21.00;99.90
19342;DHT22;9807;48.258;12.690;2023-07-24T05:02:24;21.20;99.90
19342;DHT22;9807;48.258;12.690;2023-07-24T05:04:52;21.40;99.90
19342;DHT22;9807;48.258;12.690;2023-07-24T05:07:18;21.50;99.90
19342;DHT22;9807;48.258;12.690;2023-07-24T05:09:43;21.60;99.90
19342;DHT22;9807;48.258;12.690;2023-07-24T05:12:09;21.40;99.90
19342;DHT22;9807;48.258;12.690;2023-07-24T05:14:35;21.20;99.90
19342;DHT22;9807;48.258;12.690;2023-07-24T05:17:00;21.30;99.90
19342;DHT22;9807;48.258;12.690;2023-07-24T05:19:26;21.40;99.90
19342;DHT22;9807;48.258;12.690;2023-07-24T05:21:51;21.50;99.90
19342;DHT22;9807;48.258;12.690;2023-07-24T05:24:17;21.60;99.90
19342;DHT22;9807;48.258;12.690;2023-07-24T05:26:43;21.50;99.90
19342;DHT22;9807;48.258;12.690;2023-07-24T05:29:08;21.60;99.90
19342;DHT22;9807;48.258;12.690;2023-07-24T05:31:34;21.70;99.90
19342;DHT22;9807;48.258;12.690;2023-07-24T05:34:01;21.80;99.90
19342;DHT22;9807;48.258;12.690;2023-07-24T05:36:29;21.70;99.90
19342;DHT22;9807;48.258;12.690;2023-07-24T05:38:54;21.50;99.90
19342;DHT22;9807;48.258;12.690;2023-07-24T05:41:21;21.30;99.90
19342;DHT22;9807;48.258;12.690;2023-07-24T05:43:47;21.10;99.90
19342;DHT22;9807;48.258;12.690;2023-07-24T05:46:13;21.00;99.90
19342;DHT22;9807;48.258;12.690;2023-07-24T05:48:38;21.10;99.90
19342;DHT22;9807;48.258;12.690;2023-07-24T05:51:04;21.00;99.90
19342;DHT22;9807;48.258;12.690;2023-07-24T05:53:29;20.90;99.90
19342;DHT22;9807;48.258;12.690;2023-07-24T05:56:02;21.00;99.90
19342;DHT22;9807;48.258;12.690;2023-07-24T05:58:28;21.40;99.90
19342;DHT22;9807;48.258;12.690;2023-07-24T06:00:54;21.60;99.90
19342;DHT22;9807;48.258;12.690;2023-07-24T06:03:22;21.80;99.90
19342;DHT22;9807;48.258;12.690;2023-07-24T06:05:51;22.00;99.90
19342;DHT22;9807;48.258;12.690;2023-07-24T06:08:18;22.20;99.90
19342;DHT22;9807;48.258;12.690;2023-07-24T06:10:45;22.20;99.90
19342;DHT22;9807;48.258;12.690;2023-07-24T06:13:11;22.00;99.90
19342;DHT22;9807;48.258;12.690;2023-07-24T06:15:37;22.10;99.90
19342;DHT22;9807;48.258;12.690;2023-07-24T06:18:02;22.40;99.90
19342;DHT22;9807;48.258;12.690;2023-07-24T06:20:28;22.40;99.90
19342;DHT22;9807;48.258;12.690;2023-07-24T06:22:53;22.20;99.90
19342;DHT22;9807;48.258;12.690;2023-07-24T06:25:20;22.20;99.90
19342;DHT22;9807;48.258;12.690;2023-07-24T06:27:46;22.30;99.90
19342;DHT22;9807;48.258;12.690;2023-07-24T06:30:12;22.30;99.90
19342;DHT22;9807;48.258;12.690;2023-07-24T06:32:37;22.30;99.90
19342;DHT22;9807;48.258;12.690;2023-07-24T06:35:03;22.60;99.90
19342;DHT22;9807;48.258;12.690;2023-07-24T06:37:29;23.10;99.90
19342;DHT22;9807;48.258;12.690;2023-07-24T06:39:55;23.60;99.90
19342;DHT22;9807;48.258;12.690;2023-07-24T06:42:20;23.80;99.90
19342;DHT22;9807;48.258;12.690;2023-07-24T06:44:46;24.20;99.90
19342;DHT22;9807;48.258;12.690;2023-07-24T06:47:11;24.60;99.90
19342;DHT22;9807;48.258;12.690;2023-07-24T06:49:37;25.20;99.90
19342;DHT22;9807;48.258;12.690;2023-07-24T06:52:03;25.60;99.90
19342;DHT22;9807;48.258;12.690;2023-07-24T06:54:29;26.00;99.90
19342;DHT22;9807;48.258;12.690;2023-07-24T06:56:54;26.10;99.90
19342;DHT22;9807;48.258;12.690;2023-07-24T06:59:20;26.60;99.90
19342;DHT22;9807;48.258;12.690;2023-07-24T07:01:45;26.90;99.90
19342;DHT22;9807;48.258;12.690;2023-07-24T07:04:11;26.90;99.90
19342;DHT22;9807;48.258;12.690;2023-07-24T07:06:37;26.70;99.90
19342;DHT22;9807;48.258;12.690;2023-07-24T07:09:02;26.60;99.90
19342;DHT22;9807;48.258;12.690;2023-07-24T07:11:28;26.70;99.90
19342;DHT22;9807;48.258;12.690;2023-07-24T07:13:54;26.90;99.90
19342;DHT22;9807;48.258;12.690;2023-07-24T07:16:19;27.20;99.90
19342;DHT22;9807;48.258;12.690;2023-07-24T07:18:45;27.30;99.90
19342;DHT22;9807;48.258;12.690;2023-07-24T07:21:11;27.80;99.90
19342;DHT22;9807;48.258;12.690;2023-07-24T07:23:36;28.10;99.90
19342;DHT22;9807;48.258;12.690;2023-07-24T07:26:02;28.30;99.90
19342;DHT22;9807;48.258;12.690;2023-07-24T07:28:28;28.70;99.90
19342;DHT22;9807;48.258;12.690;2023-07-24T07:30:53;28.80;99.90
19342;DHT22;9807;48.258;12.690;2023-07-24T07:33:20;28.90;99.90
19342;DHT22;9807;48.258;12.690;2023-07-24T07:35:49;29.20;99.90
19342;DHT22;9807;48.258;12.690;2023-07-24T07:38:14;29.60;99.90
19342;DHT22;9807;48.258;12.690;2023-07-24T07:40:41;29.80;99.90
19342;DHT22;9807;48.258;12.690;2023-07-24T07:43:07;29.70;99.90
19342;DHT22;9807;48.258;12.690;2023-07-24T07:45:33;29.50;99.90
19342;DHT22;9807;48.258;12.690;2023-07-24T07:47:59;29.70;99.90
19342;DHT22;9807;48.258;12.690;2023-07-24T07:50:24;29.80;99.90
19342;DHT22;9807;48.258;12.690;2023-07-24T07:52:51;30.10;99.90
19342;DHT22;9807;48.258;12.690;2023-07-24T07:55:18;30.30;99.90
19342;DHT22;9807;48.258;12.690;2023-07-24T07:57:44;30.60;99.90
19342;DHT22;9807;48.258;12.690;2023-07-24T08:00:11;30.70;99.90
19342;DHT22;9807;48.258;12.690;2023-07-24T08:02:36;30.90;99.90
19342;DHT22;9807;48.258;12.690;2023-07-24T08:05:09;31.10;99.90
19342;DHT22;9807;48.258;12.690;2023-07-24T08:07:35;31.30;99.90
19342;DHT22;9807;48.258;12.690;2023-07-24T08:10:01;31.40;99.90
19342;DHT22;9807;48.258;12.690;2023-07-24T08:12:27;31.10;99.90
19342;DHT22;9807;48.258;12.690;2023-07-24T08:14:52;30.70;99.90
19342;DHT22;9807;48.258;12.690;2023-07-24T08:17:18;31.00;99.90
19342;DHT22;9807;48.258;12.690;2023-07-24T08:19:43;31.40;99.90
19342;DHT22;9807;48.258;12.690;2023-07-24T08:22:09;31.50;99.90
19342;DHT22;9807;48.258;12.690;2023-07-24T08:24:35;31.80;99.90
19342;DHT22;9807;48.258;12.690;2023-07-24T08:27:01;31.90;99.90
19342;DHT22;9807;48.258;12.690;2023-07-24T08:29:27;32.10;99.90
19342;DHT22;9807;48.258;12.690;2023-07-24T08:31:53;32.20;99.90
19342;DHT22;9807;48.258;12.690;2023-07-24T08:34:18;31.80;99.90
19342;DHT22;9807;48.258;12.690;2023-07-24T08:36:44;30.40;99.90
19342;DHT22;9807;48.258;12.690;2023-07-24T08:39:09;28.80;99.90
19342;DHT22;9807;48.258;12.690;2023-07-24T08:41:36;27.70;99.90
19342;DHT22;9807;48.258;12.690;2023-07-24T08:44:07;26.50;99.90
19342;DHT22;9807;48.258;12.690;2023-07-24T08:46:37;26.00;99.90
19342;DHT22;9807;48.258;12.690;2023-07-24T08:49:04;25.40;99.90
19342;DHT22;9807;48.258;12.690;2023-07-24T08:51:30;25.20;99.90
19342;DHT22;9807;48.258;12.690;2023-07-24T08:53:57;24.90;99.90
19342;DHT22;9807;48.258;12.690;2023-07-24T08:56:23;24.70;99.90
19342;DHT22;9807;48.258;12.690;2023-07-24T08:58:49;24.50;99.90
19342;DHT22;9807;48.258;12.690;2023-07-24T09:01:16;24.40;99.90
19342;DHT22;9807;48.258;12.690;2023-07-24T09:03:41;24.30;99.90
19342;DHT22;9807;48.258;12.690;2023-07-24T09:06:07;24.40;99.90
19342;DHT22;9807;48.258;12.690;2023-07-24T09:08:35;24.50;99.90
19342;DHT22;9807;48.258;12.690;2023-07-24T09:11:02;24.70;99.90
19342;DHT22;9807;48.258;12.690;2023-07-24T09:13:29;24.60;99.90
19342;DHT22;9807;48.258;12.690;2023-07-24T09:15:55;24.60;99.90
19342;DHT22;9807;48.258;12.690;2023-07-24T09:18:21;24.60;99.90
19342;DHT22;9807;48.258;12.690;2023-07-24T09:20:47;24.50;99.90
19342;DHT22;9807;48.258;12.690;2023-07-24T09:23:14;24.40;99.90
19342;DHT22;9807;48.258;12.690;2023-07-24T09:25:42;24.30;99.90
19342;DHT22;9807;48.258;12.690;2023-07-24T09:28:16;24.40;99.90
19342;DHT22;9807;48.258;12.690;2023-07-24T09:30:50;24.30;99.90
19342;DHT22;9807;48.258;12.690;2023-07-24T09:33:16;24.20;99.90
19342;DHT22;9807;48.258;12.690;2023-07-24T09:35:42;24.10;99.90
19342;DHT22;9807;48.258;12.690;2023-07-24T09:38:11;23.90;99.90
19342;DHT22;9807;48.258;12.690;2023-07-24T09:40:45;24.00;99.90
19342;DHT22;9807;48.258;12.690;2023-07-24T09:43:21;24.00;99.90
19342;DHT22;9807;48.258;12.690;2023-07-24T09:45:48;23.90;99.90
19342;DHT22;9807;48.258;12.690;2023-07-24T09:48:15;23.90;99.90
19342;DHT22;9807;48.258;12.690;2023-07-24T09:50:46;23.90;99.90
19342;DHT22;9807;48.258;12.690;2023-07-24T09:53:21;23.90;99.90
19342;DHT22;9807;48.258;12.690;2023-07-24T09:56:02;23.90;99.90
19342;DHT22;9807;48.258;12.690;2023-07-24T09:58:28;23.80;99.90
19342;DHT22;9807;48.258;12.690;2023-07-24T10:00:55;23.70;99.90
19342;DHT22;9807;48.258;12.690;2023-07-24T10:03:22;23.70;99.90
19342;DHT22;9807;48.258;12.690;2023-07-24T10:05:48;23.70;99.90
19342;DHT22;9807;48.258;12.690;2023-07-24T10:08:18;23.80;99.90
19342;DHT22;9807;48.258;12.690;2023-07-24T10:10:45;23.90;99.90
19342;DHT22;9807;48.258;12.690;2023-07-24T10:13:12;24.10;99.90
19342;DHT22;9807;48.258;12.690;2023-07-24T10:15:41;24.30;99.90
19342;DHT22;9807;48.258;12.690;2023-07-24T10:18:08;24.70;99.90
19342;DHT22;9807;48.258;12.690;2023-07-24T10:20:35;25.00;99.90
19342;DHT22;9807;48.258;12.690;2023-07-24T10:23:05;25.00;99.90
19342;DHT22;9807;48.258;12.690;2023-07-24T10:25:32;24.80;99.90
19342;DHT22;9807;48.258;12.690;2023-07-24T10:28:09;24.70;99.90
19342;DHT22;9807;48.258;12.690;2023-07-24T10:30:42;24.90;99.90
19342;DHT22;9807;48.258;12.690;2023-07-24T10:33:18;25.10;99.90
19342;DHT22;9807;48.258;12.690;2023-07-24T10:35:46;25.50;99.90
19342;DHT22;9807;48.258;12.690;2023-07-24T10:38:13;25.90;99.90
19342;DHT22;9807;48.258;12.690;2023-07-24T10:40:42;26.20;99.90
19342;DHT22;9807;48.258;12.690;2023-07-24T10:43:10;26.50;99.90
19342;DHT22;9807;48.258;12.690;2023-07-24T10:48:08;26.70;99.90
19342;DHT22;9807;48.258;12.690;2023-07-24T10:50:38;26.60;99.90
19342;DHT22;9807;48.258;12.690;2023-07-24T10:53:04;26.80;99.90
19342;DHT22;9807;48.258;12.690;2023-07-24T10:55:29;26.90;99.90
19342;DHT22;9807;48.258;12.690;2023-07-24T10:57:55;27.00;99.90
19342;DHT22;9807;48.258;12.690;2023-07-24T11:00:21;27.00;99.90
19342;DHT22;9807;48.258;12.690;2023-07-24T11:02:47;27.10;99.90
19342;DHT22;9807;48.258;12.690;2023-07-24T11:05:13;27.20;99.90
19342;DHT22;9807;48.258;12.690;2023-07-24T11:07:39;27.40;99.90
19342;DHT22;9807;48.258;12.690;2023-07-24T11:10:17;27.60;99.90
19342;DHT22;9807;48.258;12.690;2023-07-24T11:12:43;27.80;99.90
19342;DHT22;9807;48.258;12.690;2023-07-24T11:15:10;28.00;99.90
19342;DHT22;9807;48.258;12.690;2023-07-24T11:17:38;28.00;99.90
19342;DHT22;9807;48.258;12.690;2023-07-24T11:20:13;28.20;99.90
19342;DHT22;9807;48.258;12.690;2023-07-24T11:22:41;28.40;99.90
19342;DHT22;9807;48.258;12.690;2023-07-24T11:25:08;28.50;99.90
19342;DHT22;9807;48.258;12.690;2023-07-24T11:27:42;28.60;99.90
19342;DHT22;9807;48.258;12.690;2023-07-24T11:30:10;28.70;99.90
19342;DHT22;9807;48.258;12.690;2023-07-24T11:32:41;28.40;99.90
19342;DHT22;9807;48.258;12.690;2023-07-24T11:35:08;28.50;99.90
19342;DHT22;9807;48.258;12.690;2023-07-24T11:37:34;28.60;99.90
19342;DHT22;9807;48.258;12.690;2023-07-24T11:40:02;28.70;99.90
19342;DHT22;9807;48.258;12.690;2023-07-24T11:42:30;28.90;99.90
19342;DHT22;9807;48.258;12.690;2023-07-24T11:44:56;28.90;99.90
19342;DHT22;9807;48.258;12.690;2023-07-24T11:47:26;29.10;99.90
19342;DHT22;9807;48.258;12.690;2023-07-24T11:50:01;29.20;99.90
19342;DHT22;9807;48.258;12.690;2023-07-24T11:52:44;29.20;99.90
19342;DHT22;9807;48.258;12.690;2023-07-24T11:55:18;29.00;99.90
19342;DHT22;9807;48.258;12.690;2023-07-24T11:58:01;29.00;99.90
19342;DHT22;9807;48.258;12.690;2023-07-24T12:00:27;29.20;99.90
19342;DHT22;9807;48.258;12.690;2023-07-24T12:03:00;29.50;99.90
19342;DHT22;9807;48.258;12.690;2023-07-24T12:05:26;29.60;99.90
19342;DHT22;9807;48.258;12.690;2023-07-24T12:07:54;29.80;99.90
19342;DHT22;9807;48.258;12.690;2023-07-24T12:10:27;29.90;99.90
19342;DHT22;9807;48.258;12.690;2023-07-24T12:12:53;29.80;99.90
19342;DHT22;9807;48.258;12.690;2023-07-24T12:15:19;29.60;99.90
19342;DHT22;9807;48.258;12.690;2023-07-24T12:17:45;29.80;99.90
19342;DHT22;9807;48.258;12.690;2023-07-24T12:20:11;30.10;99.90
19342;DHT22;9807;48.258;12.690;2023-07-24T12:22:38;30.00;99.90
19342;DHT22;9807;48.258;12.690;2023-07-24T12:25:04;29.60;99.90
19342;DHT22;9807;48.258;12.690;2023-07-24T12:27:30;29.70;99.90
19342;DHT22;9807;48.258;12.690;2023-07-24T12:29:56;29.80;99.90
19342;DHT22;9807;48.258;12.690;2023-07-24T12:32:22;29.90;99.90
19342;DHT22;9807;48.258;12.690;2023-07-24T12:34:50;29.90;99.90
19342;DHT22;9807;48.258;12.690;2023-07-24T12:37:16;29.80;99.90
19342;DHT22;9807;48.258;12.690;2023-07-24T12:39:46;29.50;99.90
19342;DHT22;9807;48.258;12.690;2023-07-24T12:42:12;29.20;99.90
19342;DHT22;9807;48.258;12.690;2023-07-24T12:44:38;29.10;99.90
19342;DHT22;9807;48.258;12.690;2023-07-24T12:47:04;28.90;99.90
19342;DHT22;9807;48.258;12.690;2023-07-24T12:49:29;28.80;99.90
19342;DHT22;9807;48.258;12.690;2023-07-24T12:51:55;28.90;99.90
19342;DHT22;9807;48.258;12.690;2023-07-24T12:54:21;29.00;99.90
19342;DHT22;9807;48.258;12.690;2023-07-24T12:56:48;29.00;99.90
19342;DHT22;9807;48.258;12.690;2023-07-24T12:59:14;28.90;99.90
19342;DHT22;9807;48.258;12.690;2023-07-24T13:01:39;29.10;99.90
19342;DHT22;9807;48.258;12.690;2023-07-24T13:04:05;29.20;99.90
19342;DHT22;9807;48.258;12.690;2023-07-24T13:06:31;28.70;99.90
19342;DHT22;9807;48.258;12.690;2023-07-24T13:08:56;28.60;99.90
19342;DHT22;9807;48.258;12.690;2023-07-24T13:11:22;28.20;99.90
19342;DHT22;9807;48.258;12.690;2023-07-24T13:13:48;27.80;99.90
19342;DHT22;9807;48.258;12.690;2023-07-24T13:16:16;27.40;99.90
19342;DHT22;9807;48.258;12.690;2023-07-24T13:18:42;27.00;99.90
19342;DHT22;9807;48.258;12.690;2023-07-24T13:21:07;26.70;99.90
19342;DHT22;9807;48.258;12.690;2023-07-24T13:23:34;26.60;99.90
19342;DHT22;9807;48.258;12.690;2023-07-24T13:25:59;26.50;99.90
19342;DHT22;9807;48.258;12.690;2023-07-24T13:28:25;26.50;99.90
19342;DHT22;9807;48.258;12.690;2023-07-24T13:30:51;26.40;99.90
19342;DHT22;9807;48.258;12.690;2023-07-24T13:33:20;26.40;99.90
19342;DHT22;9807;48.258;12.690;2023-07-24T13:35:47;26.10;99.90
19342;DHT22;9807;48.258;12.690;2023-07-24T13:38:13;25.90;99.90
19342;DHT22;9807;48.258;12.690;2023-07-24T13:40:41;25.50;99.90
19342;DHT22;9807;48.258;12.690;2023-07-24T13:43:07;25.10;99.90
19342;DHT22;9807;48.258;12.690;2023-07-24T13:45:32;24.50;99.90
19342;DHT22;9807;48.258;12.690;2023-07-24T13:47:58;24.10;99.90
19342;DHT22;9807;48.258;12.690;2023-07-24T13:50:24;23.80;99.90
19342;DHT22;9807;48.258;12.690;2023-07-24T13:52:50;23.60;99.90
19342;DHT22;9807;48.258;12.690;2023-07-24T13:55:15;23.50;99.90
19342;DHT22;9807;48.258;12.690;2023-07-24T13:57:41;23.40;99.90
19342;DHT22;9807;48.258;12.690;2023-07-24T14:00:07;23.30;99.90
19342;DHT22;9807;48.258;12.690;2023-07-24T14:02:33;23.10;99.90
19342;DHT22;9807;48.258;12.690;2023-07-24T14:04:59;22.90;99.90
19342;DHT22;9807;48.258;12.690;2023-07-24T14:07:24;22.80;99.90
19342;DHT22;9807;48.258;12.690;2023-07-24T14:09:50;22.70;99.90
19342;DHT22;9807;48.258;12.690;2023-07-24T14:12:16;22.70;99.90
19342;DHT22;9807;48.258;12.690;2023-07-24T14:14:42;22.40;99.90
19342;DHT22;9807;48.258;12.690;2023-07-24T14:17:07;22.30;99.90
19342;DHT22;9807;48.258;12.690;2023-07-24T14:19:33;22.20;99.90
19342;DHT22;9807;48.258;12.690;2023-07-24T14:21:59;22.20;99.90
19342;DHT22;9807;48.258;12.690;2023-07-24T14:24:25;22.30;99.90
19342;DHT22;9807;48.258;12.690;2023-07-24T14:26:51;22.30;99.90
19342;DHT22;9807;48.258;12.690;2023-07-24T14:29:16;22.60;99.90
19342;DHT22;9807;48.258;12.690;2023-07-24T14:31:43;22.70;99.90
19342;DHT22;9807;48.258;12.690;2023-07-24T14:34:09;22.70;99.90
19342;DHT22;9807;48.258;12.690;2023-07-24T14:36:37;23.00;99.90
19342;DHT22;9807;48.258;12.690;2023-07-24T14:39:03;23.40;99.90
19342;DHT22;9807;48.258;12.690;2023-07-24T14:41:29;23.80;99.90
19342;DHT22;9807;48.258;12.690;2023-07-24T14:43:55;23.90;99.90
19342;DHT22;9807;48.258;12.690;2023-07-24T14:46:21;24.00;99.90
19342;DHT22;9807;48.258;12.690;2023-07-24T14:48:46;24.20;99.90
19342;DHT22;9807;48.258;12.690;2023-07-24T14:51:12;24.20;99.90
19342;DHT22;9807;48.258;12.690;2023-07-24T14:53:38;24.20;99.90
19342;DHT22;9807;48.258;12.690;2023-07-24T14:56:04;24.40;99.90
19342;DHT22;9807;48.258;12.690;2023-07-24T14:58:30;24.50;99.90
19342;DHT22;9807;48.258;12.690;2023-07-24T15:00:56;24.70;99.90
19342;DHT22;9807;48.258;12.690;2023-07-24T15:03:22;24.90;99.90
19342;DHT22;9807;48.258;12.690;2023-07-24T15:05:48;25.00;99.90
19342;DHT22;9807;48.258;12.690;2023-07-24T15:08:14;25.00;99.90
19342;DHT22;9807;48.258;12.690;2023-07-24T15:10:42;25.00;99.90
19342;DHT22;9807;48.258;12.690;2023-07-24T15:13:09;25.20;99.90
19342;DHT22;9807;48.258;12.690;2023-07-24T15:15:35;25.40;99.90
19342;DHT22;9807;48.258;12.690;2023-07-24T15:18:01;25.60;99.90
19342;DHT22;9807;48.258;12.690;2023-07-24T15:20:27;25.60;99.90
19342;DHT22;9807;48.258;12.690;2023-07-24T15:22:52;25.40;99.90
19342;DHT22;9807;48.258;12.690;2023-07-24T15:25:21;25.40;99.90
19342;DHT22;9807;48.258;12.690;2023-07-24T15:27:47;25.70;99.90
19342;DHT22;9807;48.258;12.690;2023-07-24T15:30:13;25.90;99.90
19342;DHT22;9807;48.258;12.690;2023-07-24T15:32:39;25.90;99.90
19342;DHT22;9807;48.258;12.690;2023-07-24T15:35:05;26.20;99.90